createdAt,value
2018-12-31T00:01:28.756Z,36.90
2018-12-31T00:03:56.956Z,37.27
2018-12-31T00:06:25.230Z,33.60
2018-12-31T00:08:53.501Z,32.17
2018-12-31T00:11:21.867Z,35.80
2018-12-31T00:13:50.048Z,30.83
2018-12-31T00:16:18.217Z,30.77
2018-12-31T00:18:46.433Z,31.97
2018-12-31T00:21:14.699Z,29.70
2018-12-31T00:23:42.948Z,32.97
2018-12-31T00:26:11.364Z,33.30
2018-12-31T00:28:40.373Z,29.50
2018-12-31T00:31:08.613Z,30.43
2018-12-31T00:33:36.907Z,31.33
2018-12-31T00:36:05.105Z,24.73
2018-12-31T00:38:33.352Z,28.77
2018-12-31T00:41:01.618Z,26.23
2018-12-31T00:43:29.866Z,26.87
2018-12-31T00:45:58.717Z,31.83
2018-12-31T00:48:27.168Z,27.87
2018-12-31T00:50:55.405Z,28.43
2018-12-31T00:53:23.634Z,24.17
2018-12-31T00:55:51.881Z,25.93
2018-12-31T00:58:21.085Z,22.67
2018-12-31T01:00:49.362Z,24.13
2018-12-31T01:03:18.389Z,23.90
2018-12-31T01:05:46.665Z,19.90
2018-12-31T01:08:14.885Z,19.63
2018-12-31T01:10:43.124Z,18.07
2018-12-31T01:13:11.357Z,19.63
2018-12-31T01:15:40.558Z,20.93
2018-12-31T01:18:08.780Z,17.87
2018-12-31T01:20:37.020Z,16.53
2018-12-31T01:23:05.221Z,16.63
2018-12-31T01:25:33.485Z,15.80
2018-12-31T01:28:01.697Z,15.67
2018-12-31T01:30:29.900Z,15.13
2018-12-31T01:32:58.112Z,15.53
2018-12-31T01:35:26.401Z,14.53
2018-12-31T01:37:55.297Z,15.80
2018-12-31T01:40:23.527Z,15.37
2018-12-31T01:42:51.737Z,13.53
2018-12-31T01:45:19.949Z,15.17
2018-12-31T01:47:49.912Z,13.73
2018-12-31T01:50:18.170Z,15.50
2018-12-31T01:52:46.397Z,14.03
2018-12-31T01:55:14.652Z,14.73
2018-12-31T01:57:42.915Z,15.23
2018-12-31T02:00:11.358Z,13.83
2018-12-31T02:02:39.585Z,15.13
2018-12-31T02:05:07.865Z,13.70
2018-12-31T02:07:36.136Z,14.50
2018-12-31T02:10:04.448Z,15.93
2018-12-31T02:12:33.270Z,13.47
2018-12-31T02:15:01.556Z,15.10
2018-12-31T02:17:29.754Z,14.70
2018-12-31T02:19:58.032Z,14.60
2018-12-31T02:22:26.281Z,14.47
2018-12-31T02:24:54.506Z,15.17
2018-12-31T02:27:22.800Z,14.97
2018-12-31T02:29:51.041Z,14.37
2018-12-31T02:32:19.254Z,16.07
2018-12-31T02:34:47.513Z,15.57
2018-12-31T02:37:15.717Z,16.67
2018-12-31T02:39:44.424Z,15.73
2018-12-31T02:42:12.642Z,15.77
2018-12-31T02:44:41.629Z,14.93
2018-12-31T02:47:09.855Z,15.43
2018-12-31T02:49:38.073Z,16.23
2018-12-31T02:52:06.308Z,13.77
2018-12-31T02:54:34.572Z,15.30
2018-12-31T02:57:02.822Z,14.33
2018-12-31T02:59:31.180Z,14.70
2018-12-31T03:01:59.421Z,14.53
2018-12-31T03:04:27.739Z,17.10
2018-12-31T03:06:55.992Z,14.87
2018-12-31T03:09:24.250Z,13.03
2018-12-31T03:11:52.525Z,13.90
2018-12-31T03:14:20.755Z,15.10
2018-12-31T03:16:48.955Z,14.40
2018-12-31T03:19:17.699Z,14.67
2018-12-31T03:21:46.371Z,14.13
2018-12-31T03:24:14.635Z,14.20
2018-12-31T03:26:42.973Z,16.73
2018-12-31T03:29:11.201Z,15.77
2018-12-31T03:31:39.386Z,14.87
2018-12-31T03:34:07.709Z,15.60
2018-12-31T03:36:35.910Z,16.13
2018-12-31T03:39:05.937Z,16.07
2018-12-31T03:41:34.225Z,15.27
2018-12-31T03:44:02.454Z,16.93
2018-12-31T03:46:30.781Z,16.43
2018-12-31T03:48:59.056Z,16.47
2018-12-31T03:51:27.270Z,16.93
2018-12-31T03:53:55.547Z,19.57
2018-12-31T03:56:23.815Z,16.53
2018-12-31T03:58:52.038Z,16.90
2018-12-31T04:01:20.275Z,17.93
2018-12-31T04:06:41.482Z,17.80
2018-12-31T04:09:09.709Z,16.93
2018-12-31T04:11:37.903Z,19.73
2018-12-31T04:14:06.855Z,17.77
2018-12-31T04:16:35.124Z,23.00
2018-12-31T04:19:03.421Z,18.90
2018-12-31T04:21:31.667Z,19.70
2018-12-31T04:23:59.866Z,22.37
2018-12-31T04:26:28.084Z,18.67
2018-12-31T04:28:56.281Z,18.27
2018-12-31T04:31:24.965Z,18.37
2018-12-31T04:33:53.253Z,19.80
2018-12-31T04:36:21.536Z,18.80
2018-12-31T04:38:49.759Z,19.77
2018-12-31T04:41:17.997Z,19.23
2018-12-31T04:43:46.173Z,19.90
2018-12-31T04:46:14.402Z,19.10
2018-12-31T04:48:43.633Z,20.70
2018-12-31T04:51:11.875Z,21.97
2018-12-31T04:53:40.215Z,19.20
2018-12-31T04:56:08.467Z,18.87
2018-12-31T04:58:36.738Z,21.10
2018-12-31T05:01:04.950Z,20.57
2018-12-31T05:03:33.187Z,18.03
2018-12-31T05:06:01.486Z,19.70
2018-12-31T05:08:29.743Z,19.13
2018-12-31T05:10:57.969Z,19.40
2018-12-31T05:13:26.180Z,17.83
2018-12-31T05:15:54.472Z,18.37
2018-12-31T05:18:22.722Z,22.40
2018-12-31T05:20:50.989Z,17.83
2018-12-31T05:23:19.192Z,18.30
2018-12-31T05:25:47.440Z,16.77
2018-12-31T05:28:15.688Z,17.47
2018-12-31T05:30:43.878Z,17.10
2018-12-31T05:33:12.146Z,17.90
2018-12-31T05:35:40.375Z,16.23
2018-12-31T05:38:08.607Z,16.77
2018-12-31T05:40:36.905Z,17.13
2018-12-31T05:43:05.277Z,17.00
2018-12-31T05:45:34.300Z,17.17
2018-12-31T05:48:02.525Z,17.37
2018-12-31T05:50:30.796Z,15.97
2018-12-31T05:52:59.045Z,16.07
2018-12-31T05:55:27.981Z,16.63
2018-12-31T05:57:56.225Z,18.60
2018-12-31T06:00:25.181Z,17.43
2018-12-31T06:02:53.409Z,17.40
2018-12-31T06:05:22.641Z,17.13
2018-12-31T06:07:50.853Z,21.73
2018-12-31T06:10:19.147Z,16.40
2018-12-31T06:12:47.399Z,17.03
2018-12-31T06:15:15.609Z,16.47
2018-12-31T06:17:43.870Z,16.30
2018-12-31T06:20:12.126Z,17.17
2018-12-31T06:22:40.314Z,18.13
2018-12-31T06:25:09.269Z,16.30
2018-12-31T06:27:37.454Z,15.87
2018-12-31T06:30:06.074Z,16.97
2018-12-31T06:32:34.305Z,19.23
2018-12-31T06:35:02.555Z,18.30
2018-12-31T06:37:30.797Z,18.13
2018-12-31T06:39:59.018Z,17.97
2018-12-31T06:42:27.244Z,16.93
2018-12-31T06:44:55.441Z,16.97
2018-12-31T06:47:23.646Z,17.00
2018-12-31T06:49:51.888Z,18.00
2018-12-31T06:52:20.114Z,16.73
2018-12-31T06:54:48.309Z,18.23
2018-12-31T06:57:16.562Z,20.13
2018-12-31T06:59:44.780Z,18.03
2018-12-31T07:02:13.837Z,16.93
2018-12-31T07:04:42.047Z,17.20
2018-12-31T07:07:10.293Z,18.57
2018-12-31T07:09:38.704Z,16.60
2018-12-31T07:12:07.842Z,17.43
2018-12-31T07:14:36.128Z,17.50
2018-12-31T07:17:04.328Z,16.23
2018-12-31T07:19:32.545Z,15.57
2018-12-31T07:22:00.765Z,17.87
2018-12-31T07:24:29.014Z,16.83
2018-12-31T07:26:57.422Z,16.23
2018-12-31T07:29:25.681Z,16.43
2018-12-31T07:31:53.898Z,16.10
2018-12-31T07:34:22.149Z,17.37
2018-12-31T07:36:50.373Z,16.33
2018-12-31T07:39:18.556Z,18.93
2018-12-31T07:41:46.981Z,16.80
2018-12-31T07:44:15.279Z,16.17
2018-12-31T07:46:43.532Z,17.97
2018-12-31T07:49:11.769Z,17.40
2018-12-31T07:51:40.010Z,16.07
2018-12-31T07:54:08.248Z,15.40
2018-12-31T07:56:36.498Z,17.97
2018-12-31T07:59:04.722Z,15.93
2018-12-31T08:01:32.997Z,15.83
2018-12-31T08:04:01.242Z,18.33
2018-12-31T08:06:29.435Z,16.33
2018-12-31T08:08:57.595Z,17.20
2018-12-31T08:11:25.808Z,17.60
2018-12-31T08:13:53.992Z,17.03
2018-12-31T08:16:22.159Z,17.77
2018-12-31T08:18:50.374Z,16.83
2018-12-31T08:21:18.666Z,16.37
2018-12-31T08:23:46.887Z,15.87
2018-12-31T08:26:15.125Z,17.03
2018-12-31T08:28:43.481Z,15.90
2018-12-31T08:31:11.694Z,17.43
2018-12-31T08:33:40.875Z,15.27
2018-12-31T08:36:09.133Z,16.47
2018-12-31T08:38:38.069Z,16.47
2018-12-31T08:41:06.290Z,17.40
2018-12-31T08:43:34.554Z,16.63
2018-12-31T08:46:02.783Z,15.80
2018-12-31T08:48:31.046Z,16.13
2018-12-31T08:50:59.299Z,16.63
2018-12-31T08:53:27.518Z,16.87
2018-12-31T08:55:55.773Z,15.70
2018-12-31T08:58:23.986Z,19.43
2018-12-31T09:00:52.230Z,19.23
2018-12-31T09:03:20.457Z,16.10
2018-12-31T09:05:49.685Z,16.23
2018-12-31T09:08:17.901Z,17.57
2018-12-31T09:10:46.721Z,19.20
2018-12-31T09:13:14.992Z,18.07
2018-12-31T09:15:43.226Z,16.07
2018-12-31T09:18:11.467Z,16.43
2018-12-31T09:20:41.268Z,16.70
2018-12-31T09:23:09.485Z,16.87
2018-12-31T09:25:37.702Z,15.97
2018-12-31T09:28:06.129Z,16.77
2018-12-31T09:30:34.932Z,16.50
2018-12-31T09:33:03.830Z,16.47
2018-12-31T09:35:32.086Z,17.43
2018-12-31T09:38:00.366Z,17.17
2018-12-31T09:40:28.597Z,16.90
2018-12-31T09:42:56.879Z,17.07
2018-12-31T09:45:25.073Z,17.33
2018-12-31T09:47:53.333Z,16.50
2018-12-31T09:50:21.620Z,16.50
2018-12-31T09:52:49.849Z,14.60
2018-12-31T09:55:18.105Z,15.10
2018-12-31T09:57:46.332Z,14.80
2018-12-31T10:00:14.712Z,15.67
2018-12-31T10:02:43.656Z,14.70
2018-12-31T10:05:12.400Z,13.67
2018-12-31T10:07:40.620Z,15.10
2018-12-31T10:10:09.510Z,14.40
2018-12-31T10:12:37.759Z,14.87
2018-12-31T10:15:06.981Z,13.47
2018-12-31T10:17:35.205Z,14.13
2018-12-31T10:20:03.531Z,14.07
2018-12-31T10:22:31.737Z,15.00
2018-12-31T10:24:59.989Z,13.80
2018-12-31T10:27:28.337Z,12.77
2018-12-31T10:29:56.589Z,14.40
2018-12-31T10:32:25.779Z,13.87
2018-12-31T10:34:53.990Z,14.37
2018-12-31T10:37:22.353Z,14.13
2018-12-31T10:39:50.590Z,13.27
2018-12-31T10:42:18.891Z,13.73
2018-12-31T10:44:47.189Z,14.23
2018-12-31T10:47:15.433Z,13.57
2018-12-31T10:49:44.110Z,14.50
2018-12-31T10:52:12.406Z,13.73
2018-12-31T10:54:40.657Z,13.23
2018-12-31T10:57:08.892Z,14.03
2018-12-31T10:59:37.149Z,13.90
2018-12-31T11:02:05.386Z,13.70
2018-12-31T11:04:33.674Z,13.73
2018-12-31T11:07:02.045Z,13.40
2018-12-31T11:09:30.253Z,14.30
2018-12-31T11:11:58.502Z,14.27
2018-12-31T11:14:27.199Z,14.60
2018-12-31T11:16:55.433Z,15.10
2018-12-31T11:19:23.697Z,14.77
2018-12-31T11:21:51.953Z,14.07
2018-12-31T11:24:20.161Z,13.33
2018-12-31T11:26:49.041Z,14.53
2018-12-31T11:29:17.294Z,13.80
2018-12-31T11:31:45.514Z,15.40
2018-12-31T11:34:13.777Z,14.53
2018-12-31T11:36:42.123Z,14.30
2018-12-31T11:39:10.374Z,13.97
2018-12-31T11:41:38.577Z,14.60
2018-12-31T11:44:06.799Z,14.53
2018-12-31T11:46:35.077Z,15.60
2018-12-31T11:49:03.366Z,15.83
2018-12-31T11:51:31.633Z,15.07
2018-12-31T11:53:59.870Z,15.33
2018-12-31T11:56:28.111Z,15.03
2018-12-31T11:58:56.292Z,16.77
2018-12-31T12:01:24.568Z,16.13
2018-12-31T12:03:52.778Z,15.10
2018-12-31T12:06:20.996Z,15.87
2018-12-31T12:08:49.242Z,15.37
2018-12-31T12:11:17.547Z,14.97
2018-12-31T12:13:45.772Z,16.50
2018-12-31T12:16:14.089Z,16.10
2018-12-31T12:18:42.326Z,14.70
2018-12-31T12:21:10.551Z,14.73
2018-12-31T12:23:38.807Z,14.53
2018-12-31T12:26:07.025Z,13.10
2018-12-31T12:28:35.278Z,14.53
2018-12-31T12:31:03.483Z,13.67
2018-12-31T12:33:31.729Z,13.03
2018-12-31T12:35:59.997Z,13.57
2018-12-31T12:38:28.268Z,13.47
2018-12-31T12:40:56.534Z,13.40
2018-12-31T12:43:24.765Z,13.40
2018-12-31T12:45:53.016Z,13.83
2018-12-31T12:48:21.295Z,13.57
2018-12-31T12:50:50.181Z,13.73
2018-12-31T12:53:18.449Z,13.53
2018-12-31T12:55:48.798Z,14.50
2018-12-31T12:58:17.037Z,14.80
2018-12-31T13:00:45.255Z,14.10
2018-12-31T13:03:16.461Z,13.93
2018-12-31T13:05:45.077Z,14.00
2018-12-31T13:08:13.313Z,14.30
2018-12-31T13:10:41.958Z,14.37
2018-12-31T13:13:10.221Z,14.77
2018-12-31T13:15:38.464Z,14.13
2018-12-31T13:18:06.743Z,14.00
2018-12-31T13:20:34.997Z,14.53
2018-12-31T13:23:03.377Z,15.37
2018-12-31T13:25:31.646Z,15.43
2018-12-31T13:27:59.874Z,16.13
2018-12-31T13:30:31.098Z,16.03
2018-12-31T13:32:59.390Z,16.20
2018-12-31T13:35:28.617Z,16.60
2018-12-31T13:37:56.849Z,17.03
2018-12-31T13:40:25.069Z,16.27
2018-12-31T13:42:53.333Z,17.33
2018-12-31T13:45:21.646Z,16.60
2018-12-31T13:47:49.910Z,15.27
2018-12-31T13:50:18.118Z,16.13
2018-12-31T13:52:46.328Z,16.57
2018-12-31T13:55:14.652Z,17.37
2018-12-31T13:57:42.917Z,17.20
2018-12-31T14:00:11.377Z,16.13
2018-12-31T14:02:39.589Z,17.33
2018-12-31T14:05:07.828Z,16.63
2018-12-31T14:07:36.090Z,16.57
2018-12-31T14:12:28.590Z,16.43
2018-12-31T14:14:56.824Z,17.33
2018-12-31T14:17:25.065Z,18.53
2018-12-31T14:19:53.466Z,18.10
2018-12-31T14:22:21.700Z,20.03
2018-12-31T14:24:49.932Z,21.93
2018-12-31T14:27:18.142Z,18.40
2018-12-31T14:29:46.361Z,19.00
2018-12-31T14:32:14.601Z,17.03
2018-12-31T14:34:42.790Z,17.07
2018-12-31T14:37:11.040Z,15.97
2018-12-31T14:39:39.953Z,16.83
2018-12-31T14:42:08.185Z,17.60
2018-12-31T14:44:36.705Z,17.63
2018-12-31T14:47:05.160Z,17.67
2018-12-31T14:49:33.417Z,19.00
2018-12-31T14:52:01.722Z,39.13
2018-12-31T14:54:30.529Z,20.17
2018-12-31T14:56:58.786Z,18.80
2018-12-31T14:59:27.002Z,18.00
2018-12-31T15:01:55.241Z,17.10
2018-12-31T15:04:23.489Z,16.93
2018-12-31T15:06:51.690Z,16.07
2018-12-31T15:09:19.949Z,17.63
2018-12-31T15:11:48.217Z,16.73
2018-12-31T15:14:16.499Z,15.90
2018-12-31T15:16:45.766Z,17.13
2018-12-31T15:19:14.322Z,16.93
2018-12-31T15:21:42.858Z,16.83
2018-12-31T15:24:11.199Z,16.33
2018-12-31T15:26:39.432Z,17.07
2018-12-31T15:29:07.667Z,18.30
2018-12-31T15:31:35.901Z,16.93
2018-12-31T15:34:04.121Z,17.37
2018-12-31T15:36:32.345Z,16.50
2018-12-31T15:39:00.572Z,15.97
2018-12-31T15:41:29.573Z,16.33
2018-12-31T15:43:57.818Z,15.60
2018-12-31T15:46:26.061Z,16.30
2018-12-31T15:48:54.241Z,17.57
2018-12-31T15:51:22.592Z,18.67
2018-12-31T15:53:50.724Z,17.00
2018-12-31T15:56:18.946Z,20.03
2018-12-31T15:58:47.188Z,18.67
2018-12-31T16:01:15.425Z,18.60
2018-12-31T16:03:43.598Z,19.47
2018-12-31T16:06:11.817Z,19.90
2018-12-31T16:08:40.065Z,18.70
2018-12-31T16:11:08.283Z,18.87
2018-12-31T16:13:36.462Z,20.90
2018-12-31T16:16:04.689Z,20.57
2018-12-31T16:18:32.913Z,19.40
2018-12-31T16:21:01.109Z,21.17
2018-12-31T16:23:29.297Z,24.07
2018-12-31T16:25:57.557Z,22.30
2018-12-31T16:28:25.774Z,25.03
2018-12-31T16:30:53.981Z,22.13
2018-12-31T16:33:22.202Z,28.47
2018-12-31T16:35:50.462Z,27.57
2018-12-31T16:38:18.757Z,27.83
2018-12-31T16:40:47.024Z,30.87
2018-12-31T16:43:15.267Z,32.77
2018-12-31T16:45:43.477Z,31.43
2018-12-31T16:48:11.770Z,31.60
2018-12-31T16:50:39.992Z,26.10
2018-12-31T16:53:08.217Z,30.20
2018-12-31T16:55:36.425Z,27.47
2018-12-31T16:58:04.690Z,29.10
2018-12-31T17:00:32.989Z,26.80
2018-12-31T17:03:01.247Z,32.33
2018-12-31T17:05:29.513Z,30.53
2018-12-31T17:07:58.425Z,27.17
2018-12-31T17:10:26.635Z,33.63
2018-12-31T17:12:54.894Z,24.03
2018-12-31T17:15:23.186Z,25.47
2018-12-31T17:17:51.420Z,25.73
2018-12-31T17:20:19.600Z,24.70
2018-12-31T17:22:48.093Z,24.90
2018-12-31T17:25:16.626Z,23.70
2018-12-31T17:27:45.716Z,28.13
2018-12-31T17:30:13.940Z,189.73
2018-12-31T17:32:42.172Z,83.47
2018-12-31T17:35:10.448Z,43.57
2018-12-31T17:37:38.706Z,37.83
2018-12-31T17:40:06.977Z,39.83
2018-12-31T17:42:35.205Z,33.70
2018-12-31T17:45:04.859Z,29.27
2018-12-31T17:47:33.117Z,28.70
2018-12-31T17:50:01.349Z,26.10
2018-12-31T17:52:29.600Z,24.43
2018-12-31T17:54:57.817Z,23.23
2018-12-31T17:57:26.102Z,22.97
2018-12-31T17:59:54.326Z,25.07
2018-12-31T18:02:22.605Z,25.20
2018-12-31T18:04:50.926Z,24.83
2018-12-31T18:07:19.177Z,20.63
2018-12-31T18:09:47.455Z,22.23
2018-12-31T18:12:15.669Z,23.20
2018-12-31T18:14:43.906Z,23.20
2018-12-31T18:17:12.163Z,22.80
2018-12-31T18:19:40.392Z,20.53
2018-12-31T18:22:08.674Z,21.33
2018-12-31T18:24:36.921Z,23.37
2018-12-31T18:27:05.321Z,21.97
2018-12-31T18:29:33.513Z,22.10
2018-12-31T18:32:01.794Z,22.93
2018-12-31T18:34:30.026Z,20.43
2018-12-31T18:36:58.632Z,20.63
2018-12-31T18:39:26.906Z,23.60
2018-12-31T18:41:55.138Z,26.87
2018-12-31T18:44:23.348Z,24.70
2018-12-31T18:46:52.327Z,26.03
2018-12-31T18:49:20.541Z,26.63
2018-12-31T18:51:49.060Z,29.07
2018-12-31T18:54:17.050Z,23.60
2018-12-31T18:56:45.278Z,24.13
2018-12-31T18:59:13.497Z,26.43
2018-12-31T19:01:41.787Z,28.97
2018-12-31T19:04:09.995Z,44.13
2018-12-31T19:06:38.216Z,39.37
2018-12-31T19:09:07.918Z,34.77
2018-12-31T19:11:36.139Z,27.20
2018-12-31T19:14:04.405Z,40.30
2018-12-31T19:16:33.494Z,54.33
2018-12-31T19:19:01.712Z,325.67
2018-12-31T19:21:29.878Z,78.57
2018-12-31T19:23:58.007Z,45.20
2018-12-31T19:26:26.269Z,45.13
2018-12-31T19:28:54.466Z,37.10
2018-12-31T19:31:22.686Z,35.77
2018-12-31T19:33:50.914Z,30.50
2018-12-31T19:36:19.564Z,39.00
2018-12-31T19:38:49.385Z,39.90
2018-12-31T19:41:18.346Z,40.27
2018-12-31T19:43:46.546Z,31.07
2018-12-31T19:46:14.802Z,35.97
2018-12-31T19:48:43.077Z,37.57
2018-12-31T19:51:11.309Z,40.70
2018-12-31T19:53:39.545Z,33.97
2018-12-31T19:56:07.781Z,36.10
2018-12-31T19:58:36.035Z,34.30
2018-12-31T20:01:06.234Z,30.57
2018-12-31T20:03:32.608Z,26.47
2018-12-31T20:06:00.831Z,48.50
2018-12-31T20:08:29.129Z,34.50
2018-12-31T20:10:57.309Z,32.20
2018-12-31T20:13:25.602Z,28.27
2018-12-31T20:15:53.818Z,29.53
2018-12-31T20:18:22.049Z,26.70
2018-12-31T20:20:50.265Z,29.20
2018-12-31T20:23:18.478Z,26.50
2018-12-31T20:25:46.733Z,29.67
2018-12-31T20:28:14.977Z,28.33
2018-12-31T20:30:43.220Z,36.13
2018-12-31T20:33:11.478Z,33.00
2018-12-31T20:35:39.694Z,29.67
2018-12-31T20:38:07.919Z,32.17
2018-12-31T20:40:36.144Z,28.47
2018-12-31T20:43:04.542Z,36.80
2018-12-31T20:45:32.811Z,33.83
2018-12-31T20:48:01.931Z,34.30
2018-12-31T20:50:29.183Z,30.33
2018-12-31T20:52:57.971Z,34.57
2018-12-31T20:55:26.937Z,36.20
2018-12-31T20:57:55.139Z,33.97
2018-12-31T21:00:24.815Z,33.10
2018-12-31T21:02:52.987Z,34.13
2018-12-31T21:05:21.205Z,33.23
2018-12-31T21:07:49.484Z,32.50
2018-12-31T21:10:17.725Z,37.90
2018-12-31T21:12:45.938Z,31.57
2018-12-31T21:15:14.229Z,41.27
2018-12-31T21:17:43.306Z,43.23
2018-12-31T21:20:11.550Z,44.63
2018-12-31T21:22:39.772Z,39.17
2018-12-31T21:25:08.060Z,33.77
2018-12-31T21:27:36.311Z,38.77
2018-12-31T21:30:07.465Z,32.10
2018-12-31T21:32:35.734Z,30.57
2018-12-31T21:35:04.177Z,34.27
2018-12-31T21:37:32.405Z,37.20
2018-12-31T21:40:00.678Z,26.97
2018-12-31T21:42:28.803Z,33.80
2018-12-31T21:44:56.998Z,30.37
2018-12-31T21:47:25.212Z,33.60
2018-12-31T21:49:53.676Z,29.03
2018-12-31T21:52:21.876Z,31.30
2018-12-31T21:54:50.082Z,35.00
2018-12-31T21:57:18.343Z,37.40
2018-12-31T21:59:46.477Z,39.57
2018-12-31T22:02:14.677Z,43.57
2018-12-31T22:04:42.930Z,36.33
2018-12-31T22:07:11.181Z,34.00
2018-12-31T22:09:39.380Z,34.17
2018-12-31T22:12:07.613Z,34.97
2018-12-31T22:14:35.892Z,34.63
2018-12-31T22:17:04.120Z,40.07
2018-12-31T22:19:32.390Z,42.67
2018-12-31T22:22:00.741Z,45.50
2018-12-31T22:24:28.949Z,40.83
2018-12-31T22:26:57.185Z,38.57
2018-12-31T22:29:25.458Z,39.37
2018-12-31T22:31:53.702Z,50.60
2018-12-31T22:34:21.903Z,47.20
2018-12-31T22:36:51.149Z,49.60
2018-12-31T22:39:19.370Z,49.70
2018-12-31T22:41:47.638Z,58.57
2018-12-31T22:44:15.862Z,74.93
2018-12-31T22:46:44.130Z,68.47
2018-12-31T22:49:12.333Z,72.60
2018-12-31T22:51:41.254Z,96.90
2018-12-31T22:54:09.441Z,180.70
2018-12-31T22:56:37.671Z,286.50
2018-12-31T22:59:06.797Z,214.00
2018-12-31T23:01:35.046Z,359.73
2018-12-31T23:04:03.251Z,492.43
2018-12-31T23:06:32.563Z,529.60
2018-12-31T23:09:01.228Z,586.33
2018-12-31T23:11:29.468Z,581.60
2018-12-31T23:13:57.717Z,574.43
2018-12-31T23:16:28.026Z,553.37
2018-12-31T23:18:56.335Z,583.53
2018-12-31T23:21:24.546Z,588.70
2018-12-31T23:23:52.777Z,612.50
2018-12-31T23:26:21.097Z,613.60
2018-12-31T23:28:52.723Z,584.30
2018-12-31T23:31:18.512Z,567.53
2018-12-31T23:33:46.793Z,532.17
2018-12-31T23:36:15.013Z,501.00
2018-12-31T23:38:43.357Z,499.90
2018-12-31T23:41:11.585Z,477.00
2018-12-31T23:43:39.800Z,451.00
2018-12-31T23:46:07.964Z,468.90
2018-12-31T23:48:37.532Z,421.03
2018-12-31T23:51:05.728Z,397.00
2018-12-31T23:53:34.253Z,356.67
2018-12-31T23:56:02.572Z,349.00
2018-12-31T23:58:30.840Z,315.20
